Time;durP1;ratioP1;P1;durP2;ratioP2;P2;SDS_P1;SDS_P2;PMS_P1;PMS_P2;Temp;Humidity;BMP_temperature;BMP_pressure;BME280_temperature;BME280_humidity;BME280_pressure;Samples;Min_cycle;Max_cycle;Signal;HPM_P1;HPM_P2
2023/10/14 00:01:30;;;;;;;1.75;0.50;;;9.40;99.90;;;;;;5071919;28;20051;-81
2023/10/14 00:03:57;;;;;;;0.95;0.47;;;9.40;99.90;;;;;;5068886;28;20416;-81
2023/10/14 00:06:25;;;;;;;1.00;0.57;;;9.40;99.90;;;;;;5067845;28;20120;-81
2023/10/14 00:08:58;;;;;;;0.73;0.40;;;9.40;99.90;;;;;;5068041;28;20529;-81
2023/10/14 00:11:46;;;;;;;;;;;9.40;99.90;;;;;;5078281;28;20052;-81
2023/10/14 00:14:18;;;;;;;0.68;0.57;;;9.40;99.90;;;;;;5099420;28;19931;-81
2023/10/14 00:16:49;;;;;;;0.65;0.40;;;9.40;99.90;;;;;;5069135;28;20056;-81
2023/10/14 00:19:18;;;;;;;1.60;0.60;;;9.40;99.90;;;;;;5068920;28;20051;-82
2023/10/14 00:21:46;;;;;;;1.70;0.50;;;9.40;99.90;;;;;;5068333;28;20047;-81
2023/10/14 00:24:25;;;;;;;0.60;0.50;;;9.40;99.90;;;;;;5083548;28;20091;-81
2023/10/14 00:26:53;;;;;;;1.27;0.52;;;9.30;99.90;;;;;;5102302;28;20054;-81
2023/10/14 00:29:19;;;;;;;0.52;0.45;;;9.30;99.90;;;;;;5067791;28;20500;-81
2023/10/14 00:31:51;;;;;;;1.05;0.50;;;9.30;99.90;;;;;;5070008;28;20093;-81
2023/10/14 00:34:25;;;;;;;0.80;0.40;;;9.30;99.90;;;;;;5074397;28;20054;-81
2023/10/14 00:36:56;;;;;;;0.40;0.30;;;9.30;99.90;;;;;;5076262;28;20161;-81
2023/10/14 00:39:31;;;;;;;0.85;0.40;;;9.20;99.90;;;;;;5091301;28;20095;-81
2023/10/14 00:41:59;;;;;;;0.75;0.55;;;9.30;99.90;;;;;;5092447;28;20136;-81
2023/10/14 00:44:26;;;;;;;0.98;0.63;;;9.20;99.90;;;;;;5090865;28;20043;-81
2023/10/14 00:46:54;;;;;;;0.95;0.50;;;9.20;99.90;;;;;;5073953;28;20052;-81
2023/10/14 00:49:31;;;;;;;0.65;0.55;;;9.20;99.90;;;;;;5090834;28;20598;-81
2023/10/14 00:52:07;;;;;;;0.38;0.30;;;9.20;99.90;;;;;;5075725;28;20055;-81
2023/10/14 00:57:38;;;;;;;0.93;0.50;;;9.10;99.90;;;;;;5090230;28;20285;-81
2023/10/14 00:59:56;;;;;;;0.95;0.68;;;9.10;99.90;;;;;;5090805;28;20055;-81
2023/10/14 01:02:33;;;;;;;0.82;0.40;;;9.10;99.90;;;;;;5073838;28;20084;-81
2023/10/14 01:05:09;;;;;;;0.57;0.50;;;9.10;99.90;;;;;;5107295;28;20409;-81
2023/10/14 01:07:38;;;;;;;0.85;0.55;;;9.10;99.90;;;;;;5076360;28;20054;-81
2023/10/14 01:10:10;;;;;;;0.63;0.40;;;9.10;99.90;;;;;;5073692;28;20051;-81
2023/10/14 01:12:40;;;;;;;1.00;0.45;;;9.10;99.90;;;;;;5090514;28;20261;-81
2023/10/14 01:15:21;;;;;;;1.00;0.40;;;9.00;99.90;;;;;;5074721;28;20047;-81
2023/10/14 01:17:49;;;;;;;1.13;0.50;;;9.00;99.90;;;;;;5092398;28;20068;-81
2023/10/14 01:22:43;;;;;;;1.50;0.60;;;9.00;99.90;;;;;;5090862;28;20097;-81
2023/10/14 01:25:15;;;;;;;1.10;0.50;;;9.00;99.90;;;;;;5089346;28;20489;-81
2023/10/14 01:27:45;;;;;;;0.60;0.40;;;9.00;99.90;;;;;;5074535;28;20047;-81
2023/10/14 01:30:20;;;;;;;0.60;0.50;;;9.00;1.00;;;;;;5106427;28;20059;-81
2023/10/14 01:37:54;;;;;;;1.27;0.50;;;8.90;99.90;;;;;;5109828;28;20143;-81
2023/10/14 01:43:05;;;;;;;1.58;0.50;;;8.90;99.90;;;;;;5091308;28;20426;-81
2023/10/14 01:45:48;;;;;;;1.48;0.63;;;8.90;99.90;;;;;;5062271;28;20285;-81
2023/10/14 01:48:21;;;;;;;0.90;0.47;;;8.90;99.90;;;;;;5084382;28;20075;-82
2023/10/14 01:50:54;;;;;;;1.50;0.50;;;8.90;99.90;;;;;;5084498;28;20500;-80
2023/10/14 01:53:27;;;;;;;0.80;0.52;;;8.90;99.90;;;;;;5087340;28;20043;-80
2023/10/14 01:55:55;;;;;;;0.93;0.50;;;8.90;99.90;;;;;;5103734;28;20051;-80
2023/10/14 01:58:23;;;;;;;0.65;0.40;;;8.90;99.90;;;;;;5070669;28;20096;-80
2023/10/14 02:00:56;;;;;;;1.50;0.50;;;8.90;99.90;;;;;;5087851;28;20058;-80
2023/10/14 02:03:23;;;;;;;0.65;0.38;;;8.90;99.90;;;;;;5105431;28;20143;-80
2023/10/14 02:05:53;;;;;;;0.88;0.50;;;8.90;99.90;;;;;;5072286;28;20051;-80
2023/10/14 02:08:23;;;;;;;0.40;0.40;;;8.90;99.90;;;;;;5105036;28;20096;-80
2023/10/14 02:10:50;;;;;;;1.52;0.50;;;8.80;99.90;;;;;;5088261;28;20063;-82
2023/10/14 02:13:19;;;;;;;0.30;0.30;;;8.80;99.90;;;;;;5088817;28;20063;-82
2023/10/14 02:15:48;;;;;;;0.35;0.35;;;8.80;99.90;;;;;;5072201;28;20051;-80
2023/10/14 02:18:20;;;;;;;0.40;0.40;;;8.80;99.90;;;;;;5088931;28;20062;-83
2023/10/14 02:21:16;;;;;;;0.40;0.40;;;8.80;1.00;;;;;;5069746;28;20048;-82
2023/10/14 02:23:43;;;;;;;0.52;0.43;;;8.70;1.00;;;;;;5086096;28;20341;-80
2023/10/14 02:26:33;;;;;;;1.05;0.40;;;8.70;1.00;;;;;;5087842;28;20051;-80
2023/10/14 02:29:00;;;;;;;0.35;0.35;;;8.70;1.00;;;;;;5090225;28;20056;-82
2023/10/14 02:34:00;;;;;;;1.10;0.60;;;8.60;24.00;;;;;;5105271;28;20047;-80
2023/10/14 02:36:28;;;;;;;0.40;0.40;;;8.60;94.70;;;;;;5071555;28;20163;-80
2023/10/14 02:38:56;;;;;;;1.20;0.60;;;8.60;99.90;;;;;;5088321;28;20055;-83
2023/10/14 02:41:29;;;;;;;0.77;0.50;;;8.60;99.90;;;;;;5104183;28;20047;-82
2023/10/14 02:44:13;;;;;;;0.88;0.55;;;8.50;99.90;;;;;;5088831;28;20132;-83
2023/10/14 02:46:45;;;;;;;1.45;0.60;;;8.50;99.90;;;;;;5076411;28;20048;-80
2023/10/14 02:49:14;;;;;;;0.45;0.45;;;8.50;99.90;;;;;;5088908;28;20050;-80
2023/10/14 02:51:42;;;;;;;1.45;0.40;;;8.40;99.90;;;;;;5088358;28;20062;-80
2023/10/14 02:54:15;;;;;;;0.40;0.40;;;8.40;99.90;;;;;;5070768;28;20048;-80
2023/10/14 02:59:29;;;;;;;0.40;0.40;;;8.40;99.90;;;;;;5089500;28;20295;-79
2023/10/14 03:02:14;;;;;;;0.77;0.60;;;8.40;99.90;;;;;;5089543;28;20079;-80
2023/10/14 03:07:27;;;;;;;0.70;0.57;;;8.40;1.00;;;;;;5088302;28;20063;-81
2023/10/14 03:10:10;;;;;;;0.43;0.40;;;8.40;1.00;;;;;;5071651;28;20485;-81
2023/10/14 03:12:39;;;;;;;0.75;0.40;;;8.30;1.00;;;;;;5089521;28;20498;-81
2023/10/14 03:15:19;;;;;;;0.40;0.40;;;8.30;1.00;;;;;;5071746;28;20078;-81
2023/10/14 03:17:56;;;;;;;1.02;0.40;;;8.30;1.00;;;;;;5105715;28;20052;-81
2023/10/14 03:23:00;;;;;;;0.40;0.40;;;8.30;6.10;;;;;;5104493;28;20089;-81
2023/10/14 03:25:27;;;;;;;0.40;0.40;;;8.30;1.00;;;;;;5087086;28;20048;-80
2023/10/14 03:28:05;;;;;;;0.68;0.40;;;8.30;18.90;;;;;;5087535;28;20413;-81
2023/10/14 03:30:37;;;;;;;1.75;0.40;;;8.20;99.90;;;;;;5088665;28;20083;-81
2023/10/14 03:33:09;;;;;;;0.50;0.40;;;8.30;99.90;;;;;;5087666;28;20081;-81
2023/10/14 03:35:37;;;;;;;0.63;0.50;;;8.30;99.90;;;;;;5072056;28;20124;-81
2023/10/14 03:40:51;;;;;;;0.40;0.40;;;8.20;99.90;;;;;;5103346;28;20052;-81
2023/10/14 03:43:19;;;;;;;0.55;0.35;;;8.20;99.90;;;;;;5103880;28;20116;-81
2023/10/14 03:46:23;;;;;;;0.60;0.47;;;8.20;99.90;;;;;;5087315;28;20116;-81
2023/10/14 03:48:47;;;;;;;0.30;0.30;;;8.20;99.90;;;;;;5088397;28;20559;-81
2023/10/14 03:51:24;;;;;;;0.80;0.50;;;8.30;99.90;;;;;;5087729;28;20393;-81
2023/10/14 03:54:01;;;;;;;1.73;0.40;;;8.30;99.90;;;;;;5071871;28;20633;-81
2023/10/14 03:56:29;;;;;;;0.57;0.40;;;8.30;99.90;;;;;;5086660;28;20462;-81
2023/10/14 03:59:01;;;;;;;0.93;0.50;;;8.30;99.90;;;;;;5103327;28;20484;-81
2023/10/14 04:01:43;;;;;;;0.47;0.40;;;8.30;99.90;;;;;;5087412;28;20060;-81
2023/10/14 04:04:21;;;;;;;1.95;0.70;;;8.30;99.90;;;;;;5089594;28;20043;-81
2023/10/14 04:07:13;;;;;;;0.57;0.50;;;8.30;99.90;;;;;;5072502;28;20545;-81
2023/10/14 04:12:09;;;;;;;0.35;0.35;;;8.30;99.90;;;;;;5086896;28;20059;-81
2023/10/14 04:14:37;;;;;;;0.30;0.30;;;8.40;91.20;;;;;;5086468;28;20058;-80
2023/10/14 04:17:18;;;;;;;1.08;0.60;;;8.30;52.90;;;;;;5069842;28;20070;-80
2023/10/14 04:19:46;;;;;;;0.75;0.40;;;8.30;19.90;;;;;;5073978;28;20044;-80
2023/10/14 04:22:38;;;;;;;1.02;0.50;;;8.30;32.10;;;;;;5070297;28;20058;-81
2023/10/14 04:25:19;;;;;;;1.70;0.52;;;8.30;45.00;;;;;;5089347;28;20055;-80
2023/10/14 04:35:33;;;;;;;0.47;0.47;;;8.30;99.90;;;;;;5087135;28;20582;-80
2023/10/14 04:38:15;;;;;;;0.68;0.68;;;8.20;99.90;;;;;;5103526;28;20055;-81
2023/10/14 04:40:53;;;;;;;2.65;0.75;;;8.30;99.90;;;;;;5073222;28;20050;-79
2023/10/14 04:48:59;;;;;;;0.43;0.40;;;8.20;99.90;;;;;;5089304;28;20058;-81
2023/10/14 04:51:45;;;;;;;1.33;0.50;;;8.20;99.90;;;;;;5088401;28;20135;-81
2023/10/14 04:54:19;;;;;;;1.58;0.40;;;8.20;99.90;;;;;;5074768;28;20108;-81
2023/10/14 04:56:46;;;;;;;1.20;0.50;;;8.20;99.90;;;;;;5071169;28;20123;-81
2023/10/14 04:59:19;;;;;;;1.02;0.40;;;8.20;99.90;;;;;;5069610;28;20175;-82
2023/10/14 05:01:48;;;;;;;0.85;0.50;;;8.20;99.90;;;;;;5087228;28;20047;-81
2023/10/14 05:04:19;;;;;;;1.60;0.60;;;8.20;99.90;;;;;;5067527;28;20143;-81
2023/10/14 05:06:48;;;;;;;0.65;0.32;;;8.20;99.90;;;;;;5064854;28;20052;-80
2023/10/14 05:09:30;;;;;;;1.02;0.50;;;8.20;99.90;;;;;;5063679;28;20131;-81
2023/10/14 05:12:00;;;;;;;0.50;0.50;;;8.20;99.90;;;;;;5080735;28;20052;-82
2023/10/14 05:14:36;;;;;;;0.82;0.47;;;8.20;99.90;;;;;;5100868;28;20054;-81
2023/10/14 05:17:14;;;;;;;0.50;0.50;;;8.20;92.60;;;;;;5085673;28;20051;-81
2023/10/14 05:19:42;;;;;;;1.38;0.43;;;8.20;20.20;;;;;;5072929;28;20385;-81
2023/10/14 05:22:18;;;;;;;1.48;0.63;;;8.20;33.60;;;;;;5088167;28;20146;-81
2023/10/14 05:24:50;;;;;;;0.45;0.40;;;8.20;1.00;;;;;;5088332;28;20418;-81
2023/10/14 05:27:19;;;;;;;;;;;8.20;1.00;;;;;;5088630;28;20538;-81
2023/10/14 05:29:50;;;;;;;1.48;0.55;;;8.20;1.00;;;;;;5104592;28;20280;-81
2023/10/14 05:32:24;;;;;;;0.30;0.30;;;8.20;1.00;;;;;;5088589;28;20074;-81
2023/10/14 05:34:52;;;;;;;0.43;0.40;;;8.20;1.00;;;;;;5088845;28;20138;-81
2023/10/14 05:37:21;;;;;;;0.30;0.30;;;8.20;1.00;;;;;;5067891;28;20155;-82
2023/10/14 05:39:50;;;;;;;0.20;0.20;;;8.20;1.00;;;;;;5086309;28;20047;-82
2023/10/14 05:42:20;;;;;;;1.02;0.43;;;8.20;1.00;;;;;;5087100;28;20047;-82
2023/10/14 05:44:49;;;;;;;0.20;0.20;;;8.20;1.00;;;;;;5065010;28;20050;-82
2023/10/14 05:47:17;;;;;;;0.55;0.40;;;8.20;1.00;;;;;;5100012;28;20048;-81
2023/10/14 05:49:44;;;;;;;0.30;0.30;;;8.10;1.00;;;;;;5074932;28;20093;-81
2023/10/14 05:52:11;;;;;;;0.63;0.50;;;8.10;1.00;;;;;;5081394;28;20044;-81
2023/10/14 05:54:42;;;;;;;0.30;0.30;;;8.10;26.60;;;;;;5064449;28;20087;-81
2023/10/14 05:57:09;;;;;;;1.20;0.55;;;8.00;61.30;;;;;;5061453;28;20549;-82
2023/10/14 05:59:36;;;;;;;0.65;0.40;;;8.00;93.90;;;;;;5066552;28;20054;-81
2023/10/14 06:02:07;;;;;;;0.30;0.30;;;8.00;99.90;;;;;;5057089;28;20048;-81
2023/10/14 06:04:41;;;;;;;0.30;0.30;;;8.00;99.90;;;;;;5067832;28;20729;-80
2023/10/14 06:07:11;;;;;;;1.10;0.50;;;8.00;99.90;;;;;;5067358;28;20059;-82
2023/10/14 06:09:39;;;;;;;0.17;0.17;;;8.00;99.90;;;;;;5090246;28;20580;-81
2023/10/14 06:12:12;;;;;;;0.40;0.40;;;8.00;99.90;;;;;;5080300;28;20048;-82
2023/10/14 06:14:43;;;;;;;0.40;0.40;;;8.00;99.90;;;;;;5068425;28;20216;-82
2023/10/14 06:17:11;;;;;;;0.43;0.30;;;8.00;99.90;;;;;;5066989;28;20424;-82
2023/10/14 06:19:40;;;;;;;0.30;0.30;;;8.00;99.90;;;;;;5062824;28;20058;-82
2023/10/14 06:22:07;;;;;;;0.28;0.25;;;8.00;99.90;;;;;;5071391;28;20058;-83
2023/10/14 06:24:35;;;;;;;0.40;0.40;;;7.90;99.90;;;;;;5083351;28;20085;-82
2023/10/14 06:27:08;;;;;;;0.30;0.30;;;8.00;99.90;;;;;;5093654;28;20430;-83
2023/10/14 06:29:36;;;;;;;0.50;0.40;;;8.00;99.90;;;;;;5092557;28;20442;-83
2023/10/14 06:32:04;;;;;;;2.03;0.77;;;8.00;99.90;;;;;;5061971;28;20476;-83
2023/10/14 06:34:49;;;;;;;0.50;0.50;;;7.90;99.90;;;;;;5087075;28;20074;-82
2023/10/14 06:37:16;;;;;;;0.63;0.60;;;8.00;99.90;;;;;;5063803;28;20484;-82
2023/10/14 06:39:44;;;;;;;2.45;0.50;;;8.00;99.90;;;;;;5091262;28;20052;-83
2023/10/14 06:42:12;;;;;;;0.82;0.57;;;8.00;99.90;;;;;;5092285;28;20052;-83
2023/10/14 06:44:45;;;;;;;0.30;0.30;;;8.10;99.90;;;;;;5076466;28;20238;-81
2023/10/14 06:47:13;;;;;;;0.40;0.40;;;8.10;99.90;;;;;;5062353;28;20415;-82
2023/10/14 06:49:43;;;;;;;0.70;0.40;;;8.10;99.90;;;;;;5086158;28;20059;-82
2023/10/14 06:52:14;;;;;;;1.38;0.50;;;8.10;99.90;;;;;;5061538;28;20048;-82
2023/10/14 06:54:41;;;;;;;1.05;0.45;;;8.10;99.90;;;;;;5060554;28;20050;-81
2023/10/14 06:57:09;;;;;;;1.05;0.52;;;8.10;99.90;;;;;;5073755;28;20078;-82
2023/10/14 06:59:37;;;;;;;0.88;0.60;;;8.20;56.80;;;;;;5063320;28;20052;-82
2023/10/14 07:02:05;;;;;;;0.52;0.40;;;8.20;1.00;;;;;;5077774;28;20496;-83
2023/10/14 07:04:37;;;;;;;0.43;0.40;;;8.30;1.00;;;;;;5081420;28;20386;-82
2023/10/14 07:07:08;;;;;;;1.00;0.47;;;8.30;99.90;;;;;;5066677;28;20051;-81
2023/10/14 07:09:37;;;;;;;0.60;0.30;;;8.30;99.90;;;;;;5076574;28;20056;-81
2023/10/14 07:12:14;;;;;;;0.68;0.50;;;8.40;99.90;;;;;;5083109;28;20069;-79
2023/10/14 07:14:44;;;;;;;0.68;0.38;;;8.40;99.90;;;;;;5087073;28;20048;-79
2023/10/14 07:17:17;;;;;;;1.88;0.52;;;8.40;99.90;;;;;;5073422;28;20102;-79
2023/10/14 07:19:47;;;;;;;0.40;0.40;;;8.40;99.90;;;;;;5102361;28;20133;-79
2023/10/14 07:22:20;;;;;;;1.33;0.60;;;8.50;33.60;;;;;;5083940;28;20047;-79
2023/10/14 07:24:48;;;;;;;0.75;0.50;;;8.50;1.00;;;;;;5101379;28;20558;-80
2023/10/14 07:27:17;;;;;;;0.40;0.40;;;8.50;1.00;;;;;;5100542;28;20132;-80
2023/10/14 07:29:48;;;;;;;0.63;0.40;;;8.60;1.00;;;;;;5099783;28;20233;-80
2023/10/14 07:32:15;;;;;;;0.28;0.22;;;8.60;99.90;;;;;;5078731;28;20044;-79
2023/10/14 07:34:42;;;;;;;0.70;0.40;;;8.70;99.90;;;;;;5071766;28;20493;-80
2023/10/14 07:37:09;;;;;;;1.08;0.52;;;8.70;99.90;;;;;;5072537;28;20040;-80
2023/10/14 07:39:36;;;;;;;0.43;0.43;;;8.80;92.00;;;;;;5061983;28;20160;-79
2023/10/14 07:42:09;;;;;;;0.45;0.45;;;8.80;1.00;;;;;;5070539;28;20087;-77
2023/10/14 07:44:36;;;;;;;0.40;0.40;;;8.90;1.00;;;;;;5055159;28;20044;-77
2023/10/14 07:47:05;;;;;;;1.13;0.50;;;8.90;99.90;;;;;;5073897;28;20098;-75
2023/10/14 07:49:33;;;;;;;0.88;0.57;;;8.90;99.90;;;;;;5105460;28;20056;-75
2023/10/14 07:52:00;;;;;;;1.20;0.63;;;9.00;99.90;;;;;;5073484;28;20408;-74
2023/10/14 07:54:31;;;;;;;0.70;0.57;;;9.10;51.30;;;;;;5092432;28;20443;-75
2023/10/14 07:56:58;;;;;;;0.70;0.50;;;9.10;27.10;;;;;;5092831;28;20048;-75
2023/10/14 07:59:26;;;;;;;1.20;0.60;;;9.10;1.00;;;;;;5077809;28;20040;-75
2023/10/14 08:01:52;;;;;;;0.60;0.60;;;9.20;1.00;;;;;;5079270;28;20064;-75
2023/10/14 08:04:23;;;;;;;0.60;0.50;;;9.20;49.30;;;;;;5101643;28;20078;-74
2023/10/14 08:06:50;;;;;;;1.33;0.50;;;9.30;1.00;;;;;;5084024;28;20052;-74
2023/10/14 08:09:28;;;;;;;1.33;0.50;;;9.30;1.00;;;;;;5073045;28;20079;-75
2023/10/14 08:11:56;;;;;;;1.10;0.45;;;9.30;99.90;;;;;;5074058;28;20071;-75
2023/10/14 08:14:23;;;;;;;0.77;0.52;;;9.40;1.00;;;;;;5103905;28;20040;-75
2023/10/14 08:16:50;;;;;;;1.00;0.60;;;9.40;1.00;;;;;;5091638;28;20051;-75
2023/10/14 08:19:21;;;;;;;4.78;0.88;;;9.50;1.00;;;;;;5077567;28;20514;-75
2023/10/14 08:21:50;;;;;;;0.88;0.47;;;9.50;99.90;;;;;;5077260;28;20055;-75
2023/10/14 08:24:18;;;;;;;4.05;1.08;;;9.50;99.90;;;;;;5080436;28;20444;-75
2023/10/14 08:26:46;;;;;;;1.20;0.70;;;9.60;99.90;;;;;;5077834;28;20044;-75
2023/10/14 08:29:13;;;;;;;1.88;0.80;;;9.60;99.90;;;;;;5064488;28;20757;-75
2023/10/14 08:31:42;;;;;;;1.98;0.70;;;9.60;99.90;;;;;;5081651;28;20050;-76
2023/10/14 08:34:10;;;;;;;2.13;0.90;;;9.60;1.00;;;;;;5074143;28;20752;-74
2023/10/14 08:36:42;;;;;;;0.95;0.60;;;9.70;18.60;;;;;;5065613;28;20105;-75
2023/10/14 08:39:10;;;;;;;1.10;0.60;;;9.70;99.90;;;;;;5079288;28;20347;-75
2023/10/14 08:41:37;;;;;;;1.20;0.70;;;9.70;99.90;;;;;;5079266;28;20300;-75
2023/10/14 08:44:08;;;;;;;0.75;0.50;;;9.80;26.30;;;;;;5084216;28;20477;-75
2023/10/14 08:46:39;;;;;;;1.08;0.60;;;9.90;1.00;;;;;;5071077;28;20396;-75
2023/10/14 08:49:08;;;;;;;0.52;0.50;;;9.90;1.00;;;;;;5070971;28;20047;-74
2023/10/14 08:51:35;;;;;;;0.85;0.60;;;9.90;1.00;;;;;;5087471;28;20127;-75
2023/10/14 08:54:20;;;;;;;0.98;0.60;;;10.00;99.90;;;;;;5078443;28;20081;-75
2023/10/14 08:56:48;;;;;;;2.38;0.68;;;10.10;99.90;;;;;;5074042;28;20566;-75
2023/10/14 08:59:15;;;;;;;1.52;0.60;;;10.10;33.90;;;;;;5109268;28;20133;-75
2023/10/14 09:01:42;;;;;;;0.50;0.50;;;10.10;64.00;;;;;;5090718;28;20052;-74
2023/10/14 09:04:11;;;;;;;1.42;0.70;;;10.10;1.00;;;;;;5090998;28;20504;-75
2023/10/14 09:06:38;;;;;;;1.15;0.65;;;10.20;1.00;;;;;;5109161;28;20305;-75
2023/10/14 09:09:17;;;;;;;1.55;0.50;;;10.20;99.90;;;;;;5108249;28;20047;-75
2023/10/14 09:11:44;;;;;;;0.55;0.40;;;10.30;99.90;;;;;;5106695;28;20589;-75
2023/10/14 09:14:14;;;;;;;2.55;0.60;;;10.40;95.90;;;;;;5107533;28;20093;-75
2023/10/14 09:16:42;;;;;;;2.53;0.60;;;10.40;1.00;;;;;;5091434;28;20091;-74
2023/10/14 09:19:11;;;;;;;0.60;0.50;;;10.50;99.90;;;;;;5108312;28;20075;-75
2023/10/14 09:21:43;;;;;;;1.55;0.90;;;10.60;99.90;;;;;;5074773;28;20043;-75
2023/10/14 09:24:09;;;;;;;1.52;0.70;;;10.60;99.90;;;;;;5085991;28;20497;-75
2023/10/14 09:26:43;;;;;;;1.55;0.50;;;10.70;1.00;;;;;;5087724;28;20044;-76
2023/10/14 09:29:11;;;;;;;1.70;0.80;;;10.70;1.00;;;;;;5076584;28;20059;-76
2023/10/14 09:31:39;;;;;;;1.25;0.70;;;10.80;1.00;;;;;;5081994;28;20059;-76
2023/10/14 09:34:08;;;;;;;1.63;0.60;;;10.90;99.90;;;;;;5106829;28;20101;-76
2023/10/14 09:36:43;;;;;;;1.92;0.80;;;11.00;99.90;;;;;;5107290;28;20055;-77
2023/10/14 09:39:13;;;;;;;0.80;0.50;;;11.00;99.90;;;;;;5090950;28;20059;-75
2023/10/14 09:41:40;;;;;;;0.60;0.50;;;11.10;99.90;;;;;;5073754;28;20048;-76
2023/10/14 09:44:07;;;;;;;1.20;0.75;;;11.20;99.90;;;;;;5073523;28;20044;-76
2023/10/14 09:46:34;;;;;;;2.35;0.70;;;11.30;99.90;;;;;;5090845;28;20089;-76
2023/10/14 09:49:01;;;;;;;1.08;0.70;;;11.30;81.30;;;;;;5091203;28;20147;-76
2023/10/14 09:51:28;;;;;;;1.88;0.80;;;11.40;44.60;;;;;;5090620;28;20050;-75
2023/10/14 09:53:56;;;;;;;1.67;0.70;;;11.40;48.40;;;;;;5090531;28;20083;-76
2023/10/14 09:56:23;;;;;;;0.88;0.60;;;11.50;38.70;;;;;;5107016;28;20101;-76
2023/10/14 09:59:06;;;;;;;0.88;0.60;;;11.60;18.30;;;;;;5072743;28;20048;-76
2023/10/14 10:01:33;;;;;;;1.25;0.65;;;11.70;1.00;;;;;;5095320;28;20101;-76
2023/10/14 10:04:10;;;;;;;1.13;0.50;;;11.90;1.00;;;;;;5086863;28;20437;-76
2023/10/14 10:07:04;;;;;;;1.60;0.63;;;11.90;1.00;;;;;;5089047;28;20043;-75
2023/10/14 10:09:58;;;;;;;1.80;0.68;;;12.00;1.00;;;;;;5107123;28;20097;-76
2023/10/14 10:12:25;;;;;;;2.45;1.30;;;12.00;1.00;;;;;;5092528;28;20131;-76
2023/10/14 10:15:01;;;;;;;2.47;0.95;;;12.00;1.00;;;;;;5074073;28;20043;-76
2023/10/14 10:17:28;;;;;;;2.50;0.75;;;12.20;1.00;;;;;;5090251;28;20558;-76
2023/10/14 10:19:58;;;;;;;3.92;0.80;;;12.30;1.00;;;;;;5106964;28;20051;-76
2023/10/14 10:22:29;;;;;;;2.08;0.90;;;12.50;1.00;;;;;;5107028;28;20664;-76
2023/10/14 10:24:56;;;;;;;2.92;0.98;;;12.60;1.00;;;;;;5070115;28;20059;-76
2023/10/14 10:27:23;;;;;;;1.33;0.90;;;12.80;1.00;;;;;;5069553;28;20051;-75
2023/10/14 10:29:51;;;;;;;2.17;0.90;;;12.90;1.00;;;;;;5105594;28;20240;-76
2023/10/14 10:32:22;;;;;;;4.13;1.65;;;13.00;1.00;;;;;;5072968;28;20059;-76
2023/10/14 10:35:12;;;;;;;3.35;1.30;;;13.00;1.00;;;;;;5090458;28;20178;-76
2023/10/14 10:37:50;;;;;;;3.17;1.30;;;13.00;1.00;;;;;;5108262;28;20108;-75
2023/10/14 10:40:27;;;;;;;3.97;1.10;;;13.00;1.00;;;;;;5107123;28;20043;-76
2023/10/14 10:43:04;;;;;;;3.30;1.02;;;13.10;1.00;;;;;;5106151;28;20069;-76
2023/10/14 10:45:33;;;;;;;2.50;1.00;;;13.20;1.00;;;;;;5107021;28;20048;-76
2023/10/14 10:48:03;;;;;;;3.45;1.48;;;13.20;1.00;;;;;;5090171;28;20051;-76
2023/10/14 10:50:37;;;;;;;1.73;0.80;;;13.40;1.00;;;;;;5090170;28;20063;-75
2023/10/14 10:53:07;;;;;;;2.53;1.00;;;13.50;1.00;;;;;;5089259;28;20524;-76
2023/10/14 10:55:37;;;;;;;1.85;1.10;;;13.50;1.00;;;;;;5107570;28;20070;-75
2023/10/14 10:58:05;;;;;;;1.77;0.80;;;13.70;1.00;;;;;;5107390;28;20071;-76
2023/10/14 11:00:32;;;;;;;1.30;0.70;;;13.80;1.00;;;;;;5089764;28;20191;-76
2023/10/14 11:03:03;;;;;;;0.80;0.77;;;14.00;1.00;;;;;;5106237;28;20139;-76
2023/10/14 11:05:33;;;;;;;0.60;0.45;;;14.10;1.00;;;;;;5089987;28;20048;-76
2023/10/14 11:08:01;;;;;;;1.30;0.88;;;14.30;1.00;;;;;;5073104;28;20286;-76
2023/10/14 11:10:29;;;;;;;2.60;1.27;;;14.30;1.00;;;;;;5071428;28;20076;-76
2023/10/14 11:12:57;;;;;;;1.70;0.73;;;14.20;1.00;;;;;;5071697;28;20581;-76
2023/10/14 11:15:34;;;;;;;1.42;0.65;;;14.10;1.00;;;;;;5106046;28;20055;-76
2023/10/14 11:18:01;;;;;;;1.83;0.85;;;14.10;1.00;;;;;;5090303;28;20100;-76
2023/10/14 11:20:29;;;;;;;2.17;0.60;;;14.20;1.00;;;;;;5087311;28;20170;-76
2023/10/14 11:22:55;;;;;;;2.53;1.02;;;14.10;1.00;;;;;;5082884;28;20498;-75
2023/10/14 11:25:22;;;;;;;1.05;0.68;;;13.90;1.00;;;;;;5086352;28;20493;-75
2023/10/14 11:27:54;;;;;;;1.45;0.63;;;13.80;1.00;;;;;;5060755;28;20050;-76
2023/10/14 11:30:21;;;;;;;2.53;1.15;;;13.60;1.00;;;;;;5081391;28;20036;-76
2023/10/14 11:32:48;;;;;;;1.48;0.95;;;13.60;1.00;;;;;;5083682;28;20075;-76
2023/10/14 11:35:21;;;;;;;2.53;1.00;;;13.80;1.00;;;;;;5085191;28;20039;-75
2023/10/14 11:37:55;;;;;;;1.40;0.80;;;14.00;1.00;;;;;;5088690;28;20040;-76
2023/10/14 11:40:45;;;;;;;2.20;1.08;;;14.20;1.00;;;;;;5087830;28;20075;-76
2023/10/14 11:43:11;;;;;;;2.33;0.90;;;14.20;1.00;;;;;;5063030;28;20067;-76
2023/10/14 11:45:45;;;;;;;2.50;1.00;;;14.40;1.00;;;;;;5090821;28;20055;-76
2023/10/14 11:48:30;;;;;;;0.73;0.60;;;14.40;1.00;;;;;;5083023;28;20159;-75
2023/10/14 11:50:58;;;;;;;1.90;0.90;;;14.60;1.00;;;;;;5089677;28;20047;-76
2023/10/14 11:53:29;;;;;;;1.60;0.98;;;14.60;1.00;;;;;;5093534;28;20047;-75
2023/10/14 11:55:58;;;;;;;1.75;0.90;;;14.70;1.00;;;;;;5092442;28;20048;-75
2023/10/14 11:58:32;;;;;;;1.98;1.00;;;15.00;1.00;;;;;;5098930;28;20405;-76
2023/10/14 12:00:59;;;;;;;1.55;1.08;;;15.30;1.00;;;;;;5080767;28;20051;-75
2023/10/14 12:03:26;;;;;;;2.75;0.70;;;15.50;1.00;;;;;;5081604;28;20157;-75
2023/10/14 12:05:59;;;;;;;0.95;0.63;;;15.70;1.00;;;;;;5082317;28;20450;-75
2023/10/14 12:08:28;;;;;;;2.33;0.90;;;15.70;1.00;;;;;;5077705;28;20220;-75
2023/10/14 12:10:57;;;;;;;2.65;1.20;;;15.40;1.00;;;;;;5062226;28;20460;-75
2023/10/14 12:13:25;;;;;;;4.85;1.58;;;14.90;1.00;;;;;;5078335;28;20051;-75
2023/10/14 12:16:12;;;;;;;1.88;1.05;;;14.40;1.00;;;;;;5084395;28;20906;-75
2023/10/14 12:18:39;;;;;;;1.92;0.90;;;14.00;1.00;;;;;;5078324;28;20055;-76
2023/10/14 12:21:05;;;;;;;2.78;0.80;;;13.70;1.00;;;;;;5098263;28;20079;-75
2023/10/14 12:23:32;;;;;;;2.30;1.00;;;13.70;1.00;;;;;;5081270;28;20059;-75
2023/10/14 12:26:00;;;;;;;2.53;1.10;;;14.20;1.00;;;;;;5095263;28;20071;-75
2023/10/14 12:28:30;;;;;;;1.90;0.70;;;14.70;1.00;;;;;;5093863;28;20134;-75
2023/10/14 12:31:06;;;;;;;2.00;1.23;;;15.10;1.00;;;;;;5078674;28;20051;-75
2023/10/14 12:33:38;;;;;;;1.90;0.82;;;15.60;1.00;;;;;;5091899;28;20091;-75
2023/10/14 12:36:17;;;;;;;1.83;0.80;;;16.30;1.00;;;;;;5098738;28;20048;-76
2023/10/14 12:38:44;;;;;;;2.05;1.02;;;16.80;1.00;;;;;;5082406;28;20517;-74
2023/10/14 12:41:13;;;;;;;1.92;1.10;;;17.30;1.00;;;;;;5097541;28;20097;-75
2023/10/14 12:43:40;;;;;;;1.77;0.90;;;17.90;1.00;;;;;;5079763;28;20063;-75
2023/10/14 12:46:14;;;;;;;4.00;1.23;;;18.30;1.00;;;;;;5087982;28;20366;-76
2023/10/14 12:48:44;;;;;;;1.38;0.80;;;18.10;1.00;;;;;;5091401;28;20044;-75
2023/10/14 12:51:14;;;;;;;1.50;0.70;;;17.40;1.00;;;;;;5093574;28;20126;-76
2023/10/14 12:53:47;;;;;;;1.77;0.68;;;15.50;1.00;;;;;;5059975;28;20486;-76
2023/10/14 12:56:14;;;;;;;;;;;14.20;88.00;;;;;;5082036;28;20043;-75
2023/10/14 12:58:45;;;;;;;0.88;0.60;;;13.30;40.20;;;;;;5097911;28;20441;-75
2023/10/14 13:01:19;;;;;;;0.60;0.50;;;12.80;99.90;;;;;;5098324;28;20047;-75
2023/10/14 13:03:52;;;;;;;0.90;0.68;;;12.40;73.60;;;;;;5057859;28;20170;-74
2023/10/14 13:06:23;;;;;;;0.88;0.60;;;12.20;99.90;;;;;;5065927;28;20124;-74
2023/10/14 13:08:58;;;;;;;0.30;0.30;;;12.00;99.90;;;;;;5091233;28;20051;-75
2023/10/14 13:11:28;;;;;;;0.60;0.50;;;11.90;99.90;;;;;;5064682;28;20079;-75
2023/10/14 13:13:55;;;;;;;0.50;0.50;;;12.50;99.90;;;;;;5064308;28;20496;-75
2023/10/14 13:16:23;;;;;;;0.60;0.60;;;13.20;99.90;;;;;;5097722;28;20056;-76
2023/10/14 13:18:50;;;;;;;0.47;0.47;;;13.70;44.80;;;;;;5081184;28;20489;-75
2023/10/14 13:21:19;;;;;;;0.30;0.30;;;14.20;1.00;;;;;;5081066;28;20519;-74
2023/10/14 13:23:49;;;;;;;0.60;0.60;;;14.70;1.00;;;;;;5080352;28;20471;-74
2023/10/14 13:26:16;;;;;;;0.57;0.57;;;15.10;1.00;;;;;;5096416;28;20063;-75
2023/10/14 13:28:45;;;;;;;0.50;0.50;;;15.60;1.00;;;;;;5080746;28;20130;-75
2023/10/14 13:31:15;;;;;;;0.60;0.50;;;15.80;1.00;;;;;;5063266;28;20322;-75
2023/10/14 13:33:46;;;;;;;0.70;0.60;;;16.20;1.00;;;;;;5080959;28;20143;-74
2023/10/14 13:36:17;;;;;;;0.88;0.43;;;16.70;1.00;;;;;;5097504;28;20051;-74
2023/10/14 13:38:44;;;;;;;0.32;0.32;;;17.10;1.00;;;;;;5079941;28;20337;-74
2023/10/14 13:41:14;;;;;;;0.40;0.40;;;17.40;1.00;;;;;;5066064;28;20142;-74
2023/10/14 13:43:45;;;;;;;0.70;0.35;;;16.90;1.00;;;;;;5101101;28;20056;-74
2023/10/14 13:46:12;;;;;;;0.22;0.20;;;16.40;1.00;;;;;;5101504;28;20043;-74
2023/10/14 13:48:39;;;;;;;0.20;0.20;;;15.90;1.00;;;;;;5102973;28;20043;-75
2023/10/14 13:51:06;;;;;;;0.30;0.30;;;15.50;1.00;;;;;;5066456;28;20077;-75
2023/10/14 13:53:33;;;;;;;0.50;0.40;;;15.00;1.00;;;;;;5081362;28;20044;-74
2023/10/14 13:56:03;;;;;;;0.60;0.50;;;14.50;1.00;;;;;;5100941;28;20058;-75
2023/10/14 13:58:34;;;;;;;0.68;0.50;;;14.00;1.00;;;;;;5101024;28;20165;-74
2023/10/14 14:01:01;;;;;;;1.25;0.50;;;13.70;1.00;;;;;;5084959;28;20544;-74